createdAt,value
2023-01-26T00:06:24.859Z,1545.571906354515
2023-01-26T00:12:48.730Z,1474.9565217391305
2023-01-26T00:21:53.932Z,1436.227424749164
2023-01-26T00:28:16.648Z,1433.571906354515
2023-01-26T00:34:41.482Z,1438.836120401338
2023-01-26T00:41:04.755Z,1473.4448160535117
2023-01-26T00:47:28.346Z,1447.0936454849498
2023-01-26T00:53:52.341Z,1425.3779264214047
2023-01-26T01:00:16.337Z,1408.2809364548496
2023-01-26T01:09:18.880Z,1436.876254180602
2023-01-26T01:20:06.438Z,1454.8428093645484
2023-01-26T01:26:30.471Z,1429.0501672240803
2023-01-26T01:32:53.145Z,1398.7090301003345
2023-01-26T01:41:34.536Z,1371.0735785953177
2023-01-26T01:48:00.020Z,1377.6555183946489
2023-01-26T01:54:24.425Z,1349.1772575250836
2023-01-26T02:14:03.706Z,1328.1672240802675
2023-01-26T02:20:27.838Z,1376.6822742474917
2023-01-26T02:26:50.506Z,1395.160535117057
2023-01-26T02:33:14.255Z,1336.8862876254182
2023-01-26T02:39:35.391Z,1376.4648829431437
2023-01-26T02:48:44.661Z,1352.494983277592
2023-01-26T02:55:09.831Z,1364.953177257525
2023-01-26T03:01:34.020Z,1337.4715719063545
2023-01-26T03:13:25.541Z,1370.809364548495
2023-01-26T03:19:50.119Z,1401.638795986622
2023-01-26T03:33:16.451Z,1385.2107023411372
2023-01-26T03:39:46.133Z,1337.4749163879599
2023-01-26T03:46:09.049Z,1312.7056856187291
2023-01-26T03:52:32.873Z,1336.76254180602
2023-01-26T04:00:28.103Z,1286.9866220735787
2023-01-26T04:06:52.627Z,1321.7290969899666
2023-01-26T04:13:15.916Z,1240.6454849498327
2023-01-26T04:19:39.707Z,1238.515050167224
2023-01-26T04:26:04.743Z,1245.772575250836
2023-01-26T04:32:28.830Z,1232.8996655518395
2023-01-26T04:41:25.213Z,1223.76254180602
2023-01-26T04:47:48.971Z,1222.2441471571906
2023-01-26T04:56:26.410Z,1199.3578595317726
2023-01-26T05:02:49.209Z,1197.9765886287626
2023-01-26T05:14:31.859Z,1150.1772575250836
2023-01-26T05:21:28.520Z,1106.2140468227424
2023-01-26T05:27:53.447Z,1021.1939799331103
2023-01-26T05:34:16.411Z,1015.3010033444816
2023-01-26T05:40:40.872Z,1008.7859531772575
2023-01-26T05:47:03.923Z,997.8996655518395
2023-01-26T05:57:06.731Z,956.3377926421405
2023-01-26T06:03:30.427Z,953.113712374582
2023-01-26T06:09:52.490Z,912.0769230769231
2023-01-26T06:22:04.609Z,922.1371237458194
2023-01-26T06:28:30.405Z,855.2842809364548
2023-01-26T06:34:52.055Z,819.752508361204
2023-01-26T06:41:13.937Z,794.8260869565217
2023-01-26T06:47:37.008Z,798.9866220735786
2023-01-26T06:54:00.600Z,787.2274247491639
2023-01-26T07:03:31.331Z,795.8060200668897
2023-01-26T07:09:57.100Z,741.1204013377926
2023-01-26T07:16:19.581Z,740.438127090301
2023-01-26T07:38:58.272Z,713.9230769230769
2023-01-26T07:45:20.375Z,714.0568561872909
2023-01-26T07:57:58.322Z,737.1505016722408
2023-01-26T08:04:24.175Z,714.561872909699
2023-01-26T08:10:50.792Z,752.5050167224081
2023-01-26T08:27:16.165Z,727.1204013377926
2023-01-26T08:33:41.129Z,679.5484949832776
2023-01-26T08:40:06.468Z,695.7926421404683
2023-01-26T08:46:31.891Z,681.6923076923077
2023-01-26T08:52:59.559Z,640.5317725752508
2023-01-26T08:59:24.885Z,668.113712374582
2023-01-26T09:13:18.759Z,649.4046822742475
2023-01-26T09:22:02.774Z,747.8595317725752
2023-01-26T09:34:06.510Z,653.9498327759197
2023-01-26T09:40:31.361Z,613.2140468227425
2023-01-26T09:46:56.268Z,621.5652173913044
2023-01-26T09:53:23.830Z,617.7591973244147
2023-01-26T09:59:49.144Z,651.5351170568562
2023-01-26T10:06:15.133Z,717.4682274247492
2023-01-26T10:15:52.477Z,752.752508361204
2023-01-26T10:26:28.946Z,803.113712374582
2023-01-26T10:33:06.863Z,782.3344481605351
2023-01-26T10:39:32.799Z,796.7224080267558
2023-01-26T10:51:30.996Z,797.0334448160535
2023-01-26T10:57:56.636Z,828.0133779264214
2023-01-26T11:04:22.181Z,834.1036789297659
2023-01-26T11:17:00.609Z,867.2274247491639
2023-01-26T11:33:34.097Z,929.5150501672241
2023-01-26T11:43:31.939Z,871.1036789297659
2023-01-26T11:54:04.115Z,868.742474916388
2023-01-26T12:05:11.547Z,991.0735785953177
2023-01-26T12:11:37.023Z,1038.2943143812709
2023-01-26T12:18:02.886Z,1035.836120401338
2023-01-26T12:28:44.750Z,1075.314381270903
2023-01-26T12:35:20.704Z,924.3511705685619
2023-01-26T12:46:35.836Z,1336.8862876254182
2023-01-26T12:55:45.280Z,865.0969899665552
2023-01-26T13:02:25.291Z,960.0936454849499
2023-01-26T13:08:51.988Z,885.2240802675585
2023-01-26T13:16:49.963Z,766.3779264214047
2023-01-26T13:29:27.093Z,868.5585284280936
2023-01-26T13:35:52.151Z,786.695652173913
2023-01-26T13:42:16.961Z,693.3779264214047
2023-01-26T13:48:41.862Z,598.3377926421405
2023-01-26T13:55:06.965Z,542.8160535117057
2023-01-26T14:01:32.671Z,634.5050167224081
2023-01-26T14:11:45.838Z,685.9130434782609
2023-01-26T14:21:04.774Z,639.8361204013378
2023-01-26T14:31:01.609Z,662.9866220735786
2023-01-26T14:37:26.951Z,693.4882943143813
2023-01-26T14:43:52.848Z,682.6354515050167
2023-01-26T14:50:19.592Z,655.2976588628762
2023-01-26T14:56:44.192Z,758.6086956521739
2023-01-26T15:03:26.048Z,1012.133779264214
2023-01-26T15:09:50.484Z,878.3511705685619
2023-01-26T15:16:16.094Z,618.2608695652174
2023-01-26T15:28:25.510Z,395.5016722408027
2023-01-26T15:34:50.671Z,341.7759197324415
2023-01-26T15:41:16.153Z,331.8026755852843
2023-01-26T15:47:38.606Z,326.87959866220734
2023-01-26T15:54:01.000Z,324.72240802675583
2023-01-26T16:00:23.093Z,331.18394648829434
2023-01-26T16:11:21.086Z,480.74581939799333
2023-01-26T16:17:43.430Z,129.09698996655518
2023-01-26T16:24:05.660Z,113.66220735785953
2023-01-26T16:30:27.879Z,151.03678929765886
2023-01-26T16:39:12.651Z,158.48829431438128
2023-01-26T16:45:34.833Z,121.38795986622074
2023-01-26T16:51:57.796Z,139.4581939799331
2023-01-26T16:58:20.723Z,192.39464882943145
2023-01-26T17:04:42.169Z,170.23745819397993
2023-01-26T17:11:03.840Z,150.04347826086956
2023-01-26T17:17:25.432Z,168.5953177257525
2023-01-26T17:23:47.854Z,167.87959866220737
2023-01-26T17:40:55.109Z,323.83946488294316
2023-01-26T17:47:21.421Z,260.88963210702343
2023-01-26T17:53:43.530Z,445.1471571906354
2023-01-26T18:06:20.563Z,599.5785953177258
2023-01-26T18:12:42.958Z,392.45484949832775
2023-01-26T18:19:04.420Z,336.0
2023-01-26T18:25:26.248Z,344.561872909699
2023-01-26T18:35:37.599Z,524.4849498327759
2023-01-26T18:42:01.443Z,425.4882943143813
2023-01-26T18:48:27.915Z,335.17391304347825
2023-01-26T18:54:52.557Z,340.8026755852843
2023-01-26T19:08:15.432Z,422.94983277591973
2023-01-26T19:14:41.403Z,413.04347826086956
2023-01-26T19:29:03.365Z,492.0066889632107
2023-01-26T19:35:30.653Z,506.9297658862876
2023-01-26T19:42:35.591Z,511.6521739130435
2023-01-26T19:48:58.153Z,541.9598662207358
2023-01-26T19:59:07.470Z,523.7826086956521
2023-01-26T20:05:33.776Z,517.6454849498327
2023-01-26T20:11:58.703Z,555.8996655518395
2023-01-26T20:18:21.160Z,570.7391304347826
2023-01-26T20:34:35.176Z,599.0267558528428
2023-01-26T20:41:02.764Z,618.9498327759197
2023-01-26T20:47:34.054Z,688.0267558528428
2023-01-26T20:55:44.098Z,634.133779264214
2023-01-26T21:02:14.751Z,587.6588628762541
2023-01-26T21:08:42.406Z,623.1939799331103
2023-01-26T21:15:12.397Z,575.438127090301
2023-01-26T21:21:36.542Z,572.9665551839465
2023-01-26T21:29:36.992Z,580.6521739130435
2023-01-26T21:36:04.811Z,578.6153846153846
2023-01-26T21:42:30.574Z,544.2274247491639
2023-01-26T22:04:31.135Z,569.2642140468228
2023-01-26T22:10:52.914Z,559.2876254180602
2023-01-26T22:25:47.203Z,548.8227424749164
2023-01-26T22:32:07.822Z,561.2274247491639
2023-01-26T22:38:28.957Z,605.38127090301
2023-01-26T22:49:53.816Z,556.2073578595317
2023-01-26T22:56:14.892Z,565.6722408026756
2023-01-26T23:03:56.558Z,543.7257525083612
2023-01-26T23:10:18.359Z,532.0602006688963
2023-01-26T23:16:40.147Z,536.5284280936455
2023-01-26T23:23:02.297Z,497.2173913043478
2023-01-26T23:29:23.632Z,500.39130434782606
2023-01-26T23:41:56.122Z,467.5652173913044
2023-01-26T23:48:18.812Z,459.933110367893
2023-01-26T23:57:26.503Z,441.428093645485
